Wake Island Airfield, Wake Island

6:05 PM WAKT on April 18, 2015 (GMT +1200)
Wake Island Army Air Field | | Change Station
CLOSE
Current Station
Airport
Location: Wake Island, Wake Island Army,
Elevation: 13 ft
Nearby Weather Stations

Elev 13 ft 19.28 °N, 166.64 °E | Updated 7 minutes ago

Mostly Cloudy
Mostly Cloudy
80 °F
Feels Like 84 °F
N
18
Wind Variable Wind from ENE

Today
High -- | Low -- °F
--% Chance of Precip.
Yesterday
High -- | Low -- °F
Precip. -- in
6:34 AM 7:11 PM
Waning Crescent, 0% visible
Pressure 29.96 in
Visibility 6.2 miles
Clouds Scattered Clouds 2300 ft
Mostly Cloudy 8000 ft
Mostly Cloudy 23000 ft
Heat Index 84 °F
Dew Point 70 °F
Humidity 70%
Rainfall 0.01 in
Snow Depth Not available.
UV 1 out of 12
Pollen Not available.
Air Quality Not available.
Flu Activity Not available.
METAR PWAK 180558Z AUTO 07016KT 9999 SCT023 BKN080 BKN230 27/21 A2994 RMK AO2 SLP145 T02690211 10296 20269 55001

More Conditions Fewer Conditions

Pressure 29.96 in
Visibility 6.2 miles
Clouds Scattered Clouds 2300 ft
Mostly Cloudy 8000 ft
Mostly Cloudy 23000 ft
Heat Index 84 °F
Dew Point 70 °F
Humidity 70%
Rainfall 0.01 in
Snow Depth Not available.
UV 1 out of 12
Pollen Not available.
Air Quality Not available.
Flu Activity Not available.
METAR PWAK 180558Z AUTO 07016KT 9999 SCT023 BKN080 BKN230 27/21 A2994 RMK AO2 SLP145 T02690211 10296 20269 55001

More Conditions Fewer Conditions

10-Day Weather Forecast

Almanac

Astronomy

Apr. 18, 2015 Rise Set
Actual Time
Civil Twilight
Nautical Twilight
Astronomical Twilight
Moon
Length of Visible Light
Length of Day
Tomorrow will be .
, % of the Moon is Illuminated

Today's Extremes

Country Highs Country Lows

Community

WunderPhotos

Upload Photos

1,814,342 photos uploaded!

WunderBlogs® & News

Nearby

Air Quality

  Air Quality AQ Index Pollutant
Not available.

Snow Depth

Station Depth Elevation

Earthquake Activity

City Distance Mag. Time & Date
Minimum magnitude displayed is 2.5.

Coastal Water Temperatures

Place Temperature

Stations

Nearby Weather Stations

Station Location Temp. Windchill Dew Point Humidity Wind Precip. Elev Updated Type